Aktualne dane pomiarowe

Uwaga, wersja testowa! Automatyczne pobieranie danych za pomocą narzędzi lub skryptów to umożliwiających jest zabronione.

Dane meteo z obszaru Polski uzyskane na podstawie depesz SYNOP pobieranych co godzinę z NWS. Najedź myszką na symbol przedstawiony w tabeli, aby uzyskać informacje co do jego znaczenia. Prosimy pamiętać, że to testowa wersja strony, która jeszcze nie jest ukończona. Stworzono również jest krótki FAQ dotyczący korzystania z tej podstrony Anomalie temperatury w chwili obecnej odniesione są do okresu referencyjnego 1951-2016. Okres ten będzie później zmieniony na 1981-2010. Kliknij ikonę aby pobrać plik CSV. Kliknij ikonę aby wygenerować mapę synoptyczną dla danego terminu.

Wybierz Datę:    

        

Suwałki (12195)

Dane terminowe dla wybranej stacji. Kliknij datę, aby otrzymać dane z tego terminu dla wszystkich stacji.

TemperaturaZachmurzenieWiatrCiśnienieOpadyPogoda
 Data t td wb tx tn tg rh  Nt Nl Cl Cm Ch ws wd g1 g2 wx mslp ppp ch 24h 12h t ww ww w1 w2  
2019-07-12 23:00:00 10.4 8.7 9.2--- 8918.0wx-1wx--11010.5 988.1 -0.1---------
2019-07-12 22:00:00 10.9 8.8 9.5--- 8716.0wx-0----1010.6 988.2 0.2---------
2019-07-12 21:00:00 12.0 9.4 10.3--- 8417.0wx-wx1wx--11010.5 988.2 0.5---------
2019-07-12 20:00:00 14.2 10.4 11.7--- 7830.0wx-wx1wx--11010.3 988.2 0.8---------
2019-07-12 19:00:00 16.3 10.8 12.8--- 7040.0wx-wx1wx--11009.9 988.0 0.7---------
2019-07-12 18:00:00 17.4 9.3 12.6 21.3 14.7- 5950.0wxwxwx2wx--21009.5 987.7 0.3- 0.012------
2019-07-12 17:00:00 19.0 10.3 13.7--- 5740.0wxwxwx2wx--21009.1 987.4 -0.1---------
2019-07-12 16:00:00 19.4 9.3 13.5--- 5235.0wxwxwx4wx--41009.0 987.3 -0.4---------
2019-07-12 15:00:00 19.7 7.7 12.9--- 4645.0wxwxwx3wx--31009.1 987.4 -0.6---------
2019-07-12 14:00:00 20.9 8.5 13.8--- 4527.0wxwxwx2wx--21009.1 987.5 -0.5---------
2019-07-12 13:00:00 20.4 9.3 13.9--- 4940.0wxwxwx2wx--21009.3 987.7 -0.2---------
2019-07-12 12:00:00 19.3 10.0 13.7--- 5540.0wxwxwx2wx--21009.7 988.0 0.2- 0.06------
2019-07-12 11:00:00 18.8 9.0 13.0--- 5329.0wxwxwx2wx--21009.8 988.0 0.2---------
2019-07-12 10:00:00 18.7 9.5 13.2--- 5530.0wxwxwx3wx--31009.7 987.9 0.5---------
2019-07-12 09:00:00 18.4 10.5 13.6--- 6030.0wxwxwx3wx--31009.6 987.8 0.6---------
2019-07-12 08:00:00 16.9 9.8 12.6--- 6345.0wxwxwx3wx--31009.7 987.8 1.0---------
2019-07-12 07:00:00 16.3 10.2 12.5--- 6735.0wxwxwx3wx--31009.3 987.4 0.6---------
2019-07-12 06:00:00 14.8 10.0 11.8 16.8 12.0 11 7330.0wxwxwxwx2wx-921009.2 987.2 0.6--12----- 3.9
2019-07-12 05:00:00 13.2 9.4 10.8--- 7830.0wxwxwxwx5wx---1009.0 986.8 0.4---------
2019-07-12 04:00:00 12.4 9.0 10.2--- 8030.0wxwxwxwx3wx--31009.0 986.8 0.4---------
2019-07-12 03:00:00 12.3 9.3 10.3--- 8235.0wxwxwx3wx-931008.8 986.6 0.1---------
2019-07-12 02:00:00 12.6 10.0 10.9--- 8435.0wxwxwxwx4wx--41008.6 986.4 -0.3---------
2019-07-12 01:00:00 13.0 10.9 11.6--- 8735.0wxwxwx2wx--21008.6 986.4 -0.6---------
2019-07-12 00:00:00 12.9 10.3 11.2--- 8440.0wxwxwxwx3wx--31008.7 986.5 -0.7--6wx---
2019-07-11 23:00:00 13.1 9.5 10.8--- 7940.0wxwxwx3wx--31008.9 986.7 -0.7---wx---
2019-07-11 22:00:00 13.6 8.8 10.6--- 7350.0wx-wx3wx--31009.1 987.0 -0.4---------
2019-07-11 21:00:00 13.0 8.3 10.1--- 7350.0wx-wx2wx--21009.4 987.2 -0.1---------
2019-07-11 20:00:00 13.5 7.5 9.9--- 6735.0wx-wxwx2wx--21009.5 987.4 0.3---------
2019-07-11 19:00:00 15.1 7.6 10.7--- 6150.0wxwxwxwxwx3wx--31009.4 987.4 0.5---------
2019-07-11 18:00:00 16.8 7.7 11.5 19.4 13.8- 5550.0wxwxwxwxwx4wx-941009.2 987.3 0.2- 0.012------
2019-07-11 17:00:00 18.0 9.6 13.0--- 5845.0wxwxwxwxwx4wx--41008.9 987.1 -0.1---------
2019-07-11 16:00:00 18.7 9.7 13.3--- 5635.0wxwxwxwxwx5wx--51008.6 986.9 -0.4---------
2019-07-11 15:00:00 19.0 9.5 13.4--- 5430.0wxwxwxwx5wx--51008.8 987.1 -0.3---------
2019-07-11 14:00:00 19.1 8.4 12.9--- 5030.0wxwxwxwx5wx--51008.9 987.2 -0.1---------
2019-07-11 13:00:00 18.2 10.1 13.3--- 5935.0wxwxwxwxwx5wx--51009.1 987.3 -0.2---------
2019-07-11 12:00:00 17.5 9.9 12.9--- 6145.0wxwxwxwx5wx-851009.2 987.4 -0.4- 0.06------
2019-07-11 11:00:00 18.1 9.7 13.1--- 5835.0wxwxwxwxwx3wx--31009.1 987.3 -0.3---------
2019-07-11 10:00:00 17.6 10.0 13.0--- 6135.0wxwxwxwx4wx-841009.3 987.5 0.1---------
2019-07-11 09:00:00 17.1 10.5 13.0--- 6535.0wxwxwxwx3wx--31009.7 987.8 0.6---------
2019-07-11 08:00:00 15.6 11.0 12.6--- 7445.0wxwxwxwx3wx--31009.6 987.6 0.7---------
2019-07-11 07:00:00 15.0 11.8 12.9--- 8130.0wxwxwxwx2wx---1009.4 987.4 0.7---------
2019-07-11 06:00:00 13.8 11.1 12.0 13.9 11.9 11 8425.0wxwxwxwx3wx--31009.3 987.2 0.5 3.8 0.012----- 1.2
2019-07-11 05:00:00 13.3 11.5 12.0--- 8926.0wxwxwxwx2wx--21009.0 986.9 0.2---------
2019-07-11 04:00:00 12.8 11.2 11.7--- 9026.0wxwxwxwx2wx--21008.9 986.7 0.0---------
2019-07-11 03:00:00 12.6 11.2 11.6--- 9123.0wxwxwx2wx--21008.9 986.7 0.0---------
2019-07-11 02:00:00 12.7 11.3 11.7--- 9128.0wxwxwx1wx--11008.9 986.7 0.1---------
2019-07-11 01:00:00 12.6 11.3 11.7--- 9227.0wxwxwx2wx--21008.9 986.7 0.0---------
2019-07-11 00:00:00 12.4 11.3 11.6--- 9330.0wxwxwx2wx--21008.9 986.7 -0.2- 0.06------
1.9 ms

 

Print Friendly, PDF & Email